sensor_id;sensor_type;location;lat;lon;timestamp;pressure;altitude;pressure_sealevel;temperature;humidity
69955;BME280;57279;55.912;37.490;2022-09-30T00:01:48;99077.31;;;10.41;78.65
69955;BME280;57279;55.912;37.490;2022-09-30T00:04:19;99081.66;;;10.42;78.44
69955;BME280;57279;55.912;37.490;2022-09-30T00:06:46;99085.41;;;10.41;78.88
69955;BME280;57279;55.912;37.490;2022-09-30T00:09:12;99098.09;;;10.40;78.96
69955;BME280;57279;55.912;37.490;2022-09-30T00:11:39;99086.50;;;10.40;78.69
69955;BME280;57279;55.912;37.490;2022-09-30T00:14:06;99095.66;;;10.39;78.80
69955;BME280;57279;55.912;37.490;2022-09-30T00:16:35;99089.72;;;10.36;79.06
69955;BME280;57279;55.912;37.490;2022-09-30T00:19:02;99080.28;;;10.34;79.06
69955;BME280;57279;55.912;37.490;2022-09-30T00:21:29;99087.53;;;10.33;78.96
69955;BME280;57279;55.912;37.490;2022-09-30T00:23:55;99103.19;;;10.31;78.28
69955;BME280;57279;55.912;37.490;2022-09-30T00:26:22;99106.09;;;10.30;78.52
69955;BME280;57279;55.912;37.490;2022-09-30T00:28:52;99114.50;;;10.28;78.81
69955;BME280;57279;55.912;37.490;2022-09-30T00:31:20;99116.66;;;10.26;78.64
69955;BME280;57279;55.912;37.490;2022-09-30T00:33:47;99113.38;;;10.24;78.88
69955;BME280;57279;55.912;37.490;2022-09-30T00:36:47;99119.31;;;10.21;79.14
69955;BME280;57279;55.912;37.490;2022-09-30T00:39:17;99121.72;;;10.17;79.17
69955;BME280;57279;55.912;37.490;2022-09-30T00:41:45;99122.22;;;10.14;79.10
69955;BME280;57279;55.912;37.490;2022-09-30T00:49:40;99130.06;;;10.16;79.12
69955;BME280;57279;55.912;37.490;2022-09-30T00:52:05;99126.84;;;10.19;79.24
69955;BME280;57279;55.912;37.490;2022-09-30T00:54:31;99130.34;;;10.20;78.98
69955;BME280;57279;55.912;37.490;2022-09-30T00:56:58;99126.06;;;10.18;78.88
69955;BME280;57279;55.912;37.490;2022-09-30T00:59:28;99131.97;;;10.15;79.38
69955;BME280;57279;55.912;37.490;2022-09-30T01:01:58;99130.88;;;10.11;79.42
69955;BME280;57279;55.912;37.490;2022-09-30T01:04:26;99134.06;;;10.08;79.91
69955;BME280;57279;55.912;37.490;2022-09-30T01:06:53;99124.38;;;10.07;79.57
69955;BME280;57279;55.912;37.490;2022-09-30T01:09:19;99123.84;;;10.05;79.76
69955;BME280;57279;55.912;37.490;2022-09-30T01:11:45;99123.25;;;10.03;79.66
69955;BME280;57279;55.912;37.490;2022-09-30T01:14:17;99108.41;;;10.01;79.80
69955;BME280;57279;55.912;37.490;2022-09-30T01:16:54;99111.63;;;9.97;79.45
69955;BME280;57279;55.912;37.490;2022-09-30T01:33:03;99124.81;;;9.89;80.00
69955;BME280;57279;55.912;37.490;2022-09-30T01:35:43;99124.25;;;9.87;80.05
69955;BME280;57279;55.912;37.490;2022-09-30T01:38:27;99127.75;;;9.87;79.93
69955;BME280;57279;55.912;37.490;2022-09-30T01:41:02;99126.66;;;9.83;79.88
69955;BME280;57279;55.912;37.490;2022-09-30T01:44:31;99127.22;;;9.85;79.91
69955;BME280;57279;55.912;37.490;2022-09-30T01:46:41;99119.41;;;9.89;80.00
69955;BME280;57279;55.912;37.490;2022-09-30T01:55:05;99122.63;;;9.86;79.94
69955;BME280;57279;55.912;37.490;2022-09-30T01:59:57;99123.97;;;9.83;80.12
69955;BME280;57279;55.912;37.490;2022-09-30T02:02:26;99123.66;;;9.79;79.82
69955;BME280;57279;55.912;37.490;2022-09-30T02:05:07;99115.88;;;9.83;79.94
69955;BME280;57279;55.912;37.490;2022-09-30T02:07:59;99122.88;;;9.84;80.01
69955;BME280;57279;55.912;37.490;2022-09-30T02:10:30;99115.63;;;9.85;79.78
69955;BME280;57279;55.912;37.490;2022-09-30T02:13:06;99115.88;;;9.83;80.05
69955;BME280;57279;55.912;37.490;2022-09-30T02:15:36;99121.28;;;9.83;79.71
69955;BME280;57279;55.912;37.490;2022-09-30T02:18:16;99128.56;;;9.83;79.88
69955;BME280;57279;55.912;37.490;2022-09-30T02:20:48;99126.66;;;9.83;79.90
69955;BME280;57279;55.912;37.490;2022-09-30T02:23:21;99125.84;;;9.83;80.02
69955;BME280;57279;55.912;37.490;2022-09-30T02:28:43;99113.72;;;9.85;80.25
69955;BME280;57279;55.912;37.490;2022-09-30T02:31:11;99125.06;;;9.87;79.79
69955;BME280;57279;55.912;37.490;2022-09-30T02:33:47;99121.84;;;9.90;79.56
69955;BME280;57279;55.912;37.490;2022-09-30T02:36:16;99127.81;;;9.92;79.56
69955;BME280;57279;55.912;37.490;2022-09-30T02:38:47;99120.25;;;9.94;79.51
69955;BME280;57279;55.912;37.490;2022-09-30T02:41:21;99119.72;;;9.92;79.75
69955;BME280;57279;55.912;37.490;2022-09-30T02:43:49;99123.47;;;9.91;79.43
69955;BME280;57279;55.912;37.490;2022-09-30T02:54:24;99121.78;;;9.80;79.57
69955;BME280;57279;55.912;37.490;2022-09-30T02:59:20;99115.84;;;9.78;79.86
69955;BME280;57279;55.912;37.490;2022-09-30T03:01:46;99122.03;;;9.78;79.82
69955;BME280;57279;55.912;37.490;2022-09-30T03:04:14;99123.94;;;9.78;79.97
69955;BME280;57279;55.912;37.490;2022-09-30T03:06:40;99122.31;;;9.77;79.88
69955;BME280;57279;55.912;37.490;2022-09-30T03:09:06;99130.66;;;9.75;80.05
69955;BME280;57279;55.912;37.490;2022-09-30T03:11:32;99140.91;;;9.73;80.18
69955;BME280;57279;55.912;37.490;2022-09-30T03:25:24;99131.38;;;9.61;80.32
69955;BME280;57279;55.912;37.490;2022-09-30T03:28:19;99130.31;;;9.62;80.60
69955;BME280;57279;55.912;37.490;2022-09-30T03:30:57;99136.50;;;9.62;80.67
69955;BME280;57279;55.912;37.490;2022-09-30T03:33:32;99137.31;;;9.63;80.60
69955;BME280;57279;55.912;37.490;2022-09-30T03:36:08;99135.97;;;9.65;80.57
69955;BME280;57279;55.912;37.490;2022-09-30T03:43:59;99124.13;;;9.66;80.49
69955;BME280;57279;55.912;37.490;2022-09-30T03:46:33;99121.19;;;9.68;80.65
69955;BME280;57279;55.912;37.490;2022-09-30T03:49:04;99122.78;;;9.69;80.35
69955;BME280;57279;55.912;37.490;2022-09-30T03:51:35;99113.63;;;9.70;80.13
69955;BME280;57279;55.912;37.490;2022-09-30T03:54:06;99117.13;;;9.70;80.16
69955;BME280;57279;55.912;37.490;2022-09-30T03:56:33;99125.78;;;9.72;80.21
69955;BME280;57279;55.912;37.490;2022-09-30T03:58:58;99122.53;;;9.70;80.22
69955;BME280;57279;55.912;37.490;2022-09-30T04:01:25;99115.00;;;9.72;80.19
69955;BME280;57279;55.912;37.490;2022-09-30T04:03:50;99118.22;;;9.69;80.52
69955;BME280;57279;55.912;37.490;2022-09-30T04:06:18;99126.56;;;9.68;80.54
69955;BME280;57279;55.912;37.490;2022-09-30T04:08:45;99135.72;;;9.67;80.35
69955;BME280;57279;55.912;37.490;2022-09-30T04:11:10;99138.41;;;9.67;80.29
69955;BME280;57279;55.912;37.490;2022-09-30T04:13:37;99139.19;;;9.62;80.37
69955;BME280;57279;55.912;37.490;2022-09-30T04:16:04;99153.72;;;9.61;80.59
69955;BME280;57279;55.912;37.490;2022-09-30T04:18:30;99152.94;;;9.61;80.59
69955;BME280;57279;55.912;37.490;2022-09-30T04:20:57;99156.97;;;9.63;81.03
69955;BME280;57279;55.912;37.490;2022-09-30T04:23:23;99150.84;;;9.68;80.65
69955;BME280;57279;55.912;37.490;2022-09-30T04:25:55;99152.75;;;9.72;81.15
69955;BME280;57279;55.912;37.490;2022-09-30T04:28:21;99154.66;;;9.77;80.68
69955;BME280;57279;55.912;37.490;2022-09-30T04:30:47;99145.00;;;9.81;80.80
69955;BME280;57279;55.912;37.490;2022-09-30T04:33:15;99148.50;;;9.82;80.29
69955;BME280;57279;55.912;37.490;2022-09-30T04:35:41;99144.19;;;9.86;80.24
69955;BME280;57279;55.912;37.490;2022-09-30T04:38:07;99141.25;;;9.87;80.44
69955;BME280;57279;55.912;37.490;2022-09-30T04:40:36;99151.78;;;9.89;80.03
69955;BME280;57279;55.912;37.490;2022-09-30T04:43:03;99159.06;;;9.93;80.25
69955;BME280;57279;55.912;37.490;2022-09-30T04:45:29;99152.09;;;9.97;80.24
69955;BME280;57279;55.912;37.490;2022-09-30T04:47:56;99151.03;;;9.98;79.98
69955;BME280;57279;55.912;37.490;2022-09-30T04:50:21;99134.59;;;10.00;79.97
69955;BME280;57279;55.912;37.490;2022-09-30T04:52:49;99139.97;;;10.00;79.86
69955;BME280;57279;55.912;37.490;2022-09-30T04:55:14;99153.75;;;10.04;79.52
69955;BME280;57279;55.912;37.490;2022-09-30T04:57:43;99160.25;;;10.08;79.87
69955;BME280;57279;55.912;37.490;2022-09-30T05:00:09;99168.88;;;10.10;79.38
69955;BME280;57279;55.912;37.490;2022-09-30T05:02:35;99172.69;;;10.14;79.90
69955;BME280;57279;55.912;37.490;2022-09-30T05:05:01;99161.63;;;10.15;79.35
69955;BME280;57279;55.912;37.490;2022-09-30T05:07:31;99155.44;;;10.15;79.62
69955;BME280;57279;55.912;37.490;2022-09-30T05:09:56;99150.84;;;10.15;79.42
69955;BME280;57279;55.912;37.490;2022-09-30T05:12:22;99162.44;;;10.16;78.98
69955;BME280;57279;55.912;37.490;2022-09-30T05:14:48;99156.78;;;10.17;79.04
69955;BME280;57279;55.912;37.490;2022-09-30T05:17:14;99152.75;;;10.20;79.43
69955;BME280;57279;55.912;37.490;2022-09-30T05:19:39;99155.19;;;10.22;79.46
69955;BME280;57279;55.912;37.490;2022-09-30T05:22:05;99156.03;;;10.27;78.92
69955;BME280;57279;55.912;37.490;2022-09-30T05:24:30;99152.84;;;10.30;78.83
69955;BME280;57279;55.912;37.490;2022-09-30T05:26:56;99157.44;;;10.35;78.83
69955;BME280;57279;55.912;37.490;2022-09-30T05:29:21;99158.25;;;10.35;78.54
69955;BME280;57279;55.912;37.490;2022-09-30T05:31:47;99150.47;;;10.44;78.64
69955;BME280;57279;55.912;37.490;2022-09-30T05:34:12;99155.91;;;10.49;78.58
69955;BME280;57279;55.912;37.490;2022-09-30T05:36:42;99161.03;;;10.56;78.31
69955;BME280;57279;55.912;37.490;2022-09-30T05:39:11;99154.56;;;10.62;78.14
69955;BME280;57279;55.912;37.490;2022-09-30T05:41:37;99151.91;;;10.67;77.67
69955;BME280;57279;55.912;37.490;2022-09-30T05:44:02;99149.22;;;10.72;78.06
69955;BME280;57279;55.912;37.490;2022-09-30T05:46:28;99160.84;;;10.78;78.05
69955;BME280;57279;55.912;37.490;2022-09-30T05:48:54;99158.13;;;10.83;78.06
69955;BME280;57279;55.912;37.490;2022-09-30T05:51:20;99163.56;;;10.88;77.33
69955;BME280;57279;55.912;37.490;2022-09-30T05:53:46;99153.84;;;10.92;77.18
69955;BME280;57279;55.912;37.490;2022-09-30T05:56:12;99163.03;;;10.96;77.18
69955;BME280;57279;55.912;37.490;2022-09-30T05:58:38;99157.91;;;11.00;76.98
69955;BME280;57279;55.912;37.490;2022-09-30T06:01:11;99162.28;;;11.06;76.54
69955;BME280;57279;55.912;37.490;2022-09-30T06:03:37;99170.63;;;11.10;76.29
69955;BME280;57279;55.912;37.490;2022-09-30T06:06:04;99165.50;;;11.13;75.61
69955;BME280;57279;55.912;37.490;2022-09-30T06:08:30;99165.50;;;11.13;75.90
69955;BME280;57279;55.912;37.490;2022-09-30T06:10:56;99160.38;;;11.17;75.62
69955;BME280;57279;55.912;37.490;2022-09-30T06:13:25;99155.50;;;11.19;75.45
69955;BME280;57279;55.912;37.490;2022-09-30T06:15:58;99153.34;;;11.21;75.33
69955;BME280;57279;55.912;37.490;2022-09-30T06:18:24;99158.75;;;11.21;75.32
69955;BME280;57279;55.912;37.490;2022-09-30T06:20:54;99156.88;;;11.22;75.00
69955;BME280;57279;55.912;37.490;2022-09-30T06:23:20;99167.13;;;11.25;74.70
69955;BME280;57279;55.912;37.490;2022-09-30T06:25:52;99168.22;;;11.29;75.12
69955;BME280;57279;55.912;37.490;2022-09-30T06:28:18;99170.38;;;11.32;74.90
69955;BME280;57279;55.912;37.490;2022-09-30T06:30:45;99170.13;;;11.39;74.91
69955;BME280;57279;55.912;37.490;2022-09-30T06:33:11;99170.97;;;11.44;74.87
69955;BME280;57279;55.912;37.490;2022-09-30T06:35:38;99175.28;;;11.50;74.31
69955;BME280;57279;55.912;37.490;2022-09-30T06:38:07;99165.53;;;11.54;74.17
69955;BME280;57279;55.912;37.490;2022-09-30T06:40:32;99177.16;;;11.60;73.85
69955;BME280;57279;55.912;37.490;2022-09-30T06:42:59;99165.53;;;11.65;74.01
69955;BME280;57279;55.912;37.490;2022-09-30T06:45:25;99163.66;;;11.65;73.92
69955;BME280;57279;55.912;37.490;2022-09-30T06:47:58;99168.75;;;11.67;73.81
69955;BME280;57279;55.912;37.490;2022-09-30T06:50:25;99173.63;;;11.70;73.95
69955;BME280;57279;55.912;37.490;2022-09-30T06:52:50;99163.88;;;11.69;73.58
69955;BME280;57279;55.912;37.490;2022-09-30T06:55:19;99177.97;;;11.71;73.55
69955;BME280;57279;55.912;37.490;2022-09-30T06:57:48;99177.94;;;11.76;73.03
69955;BME280;57279;55.912;37.490;2022-09-30T07:00:14;99178.50;;;11.83;73.09
69955;BME280;57279;55.912;37.490;2022-09-30T07:02:41;99173.88;;;11.89;73.33
69955;BME280;57279;55.912;37.490;2022-09-30T07:05:08;99171.22;;;11.94;72.38
69955;BME280;57279;55.912;37.490;2022-09-30T07:07:33;99179.03;;;12.01;71.85
69955;BME280;57279;55.912;37.490;2022-09-30T07:10:02;99176.59;;;12.04;71.27
69955;BME280;57279;55.912;37.490;2022-09-30T07:12:29;99182.53;;;12.11;71.60
69955;BME280;57279;55.912;37.490;2022-09-30T07:14:54;99178.47;;;12.19;71.52
69955;BME280;57279;55.912;37.490;2022-09-30T07:17:21;99187.66;;;12.28;71.73
69955;BME280;57279;55.912;37.490;2022-09-30T07:19:46;99189.50;;;12.33;70.96
69955;BME280;57279;55.912;37.490;2022-09-30T07:22:12;99183.28;;;12.38;70.58
69955;BME280;57279;55.912;37.490;2022-09-30T07:24:55;99185.44;;;12.41;70.19
69955;BME280;57279;55.912;37.490;2022-09-30T07:27:23;99186.78;;;12.43;69.80
69955;BME280;57279;55.912;37.490;2022-09-30T07:29:48;99183.78;;;12.45;69.89
69955;BME280;57279;55.912;37.490;2022-09-30T07:32:14;99181.88;;;12.50;69.87
69955;BME280;57279;55.912;37.490;2022-09-30T07:34:40;99184.84;;;12.54;69.79
69955;BME280;57279;55.912;37.490;2022-09-30T07:37:10;99178.88;;;12.57;69.31
69955;BME280;57279;55.912;37.490;2022-09-30T07:39:37;99175.06;;;12.63;69.66
69955;BME280;57279;55.912;37.490;2022-09-30T07:42:03;99188.59;;;12.68;69.38
69955;BME280;57279;55.912;37.490;2022-09-30T07:44:30;99189.66;;;12.73;69.74
69955;BME280;57279;55.912;37.490;2022-09-30T07:46:56;99183.94;;;12.74;69.36
69955;BME280;57279;55.912;37.490;2022-09-30T07:49:23;99182.03;;;12.75;69.27
69955;BME280;57279;55.912;37.490;2022-09-30T07:51:54;99182.31;;;12.78;68.80
69955;BME280;57279;55.912;37.490;2022-09-30T07:54:24;99183.09;;;12.79;68.67
69955;BME280;57279;55.912;37.490;2022-09-30T07:56:50;99176.34;;;12.81;68.46
69955;BME280;57279;55.912;37.490;2022-09-30T07:59:17;99172.25;;;12.84;68.77
69955;BME280;57279;55.912;37.490;2022-09-30T08:01:44;99169.53;;;12.89;69.33
69955;BME280;57279;55.912;37.490;2022-09-30T08:04:10;99171.09;;;12.95;69.58
69955;BME280;57279;55.912;37.490;2022-09-30T08:06:40;99163.75;;;13.01;69.29
69955;BME280;57279;55.912;37.490;2022-09-30T08:09:07;99175.09;;;13.08;69.68
69955;BME280;57279;55.912;37.490;2022-09-30T08:11:34;99178.03;;;13.11;69.27
69955;BME280;57279;55.912;37.490;2022-09-30T08:14:01;99173.16;;;13.14;69.39
69955;BME280;57279;55.912;37.490;2022-09-30T08:16:27;99176.41;;;13.16;69.20
69955;BME280;57279;55.912;37.490;2022-09-30T08:18:57;99175.03;;;13.18;69.29
69955;BME280;57279;55.912;37.490;2022-09-30T08:21:23;99171.75;;;13.21;69.31
69955;BME280;57279;55.912;37.490;2022-09-30T08:23:49;99167.94;;;13.22;69.20
69955;BME280;57279;55.912;37.490;2022-09-30T08:26:15;99177.41;;;13.25;68.84
69955;BME280;57279;55.912;37.490;2022-09-30T08:28:42;99173.63;;;13.26;68.97
69955;BME280;57279;55.912;37.490;2022-09-30T08:31:14;99163.56;;;13.26;68.92
69955;BME280;57279;55.912;37.490;2022-09-30T08:33:40;99163.03;;;13.29;69.25
69955;BME280;57279;55.912;37.490;2022-09-30T08:36:18;99165.50;;;13.31;69.17
69955;BME280;57279;55.912;37.490;2022-09-30T08:38:44;99163.81;;;13.35;68.95
69955;BME280;57279;55.912;37.490;2022-09-30T08:52:19;99160.22;;;13.74;68.50
69955;BME280;57279;55.912;37.490;2022-09-30T08:54:50;99155.03;;;13.78;69.27
69955;BME280;57279;55.912;37.490;2022-09-30T08:57:17;99148.47;;;13.84;69.46
69955;BME280;57279;55.912;37.490;2022-09-30T08:59:51;99163.38;;;13.86;69.34
69955;BME280;57279;55.912;37.490;2022-09-30T09:02:51;99157.97;;;13.86;68.66
69955;BME280;57279;55.912;37.490;2022-09-30T09:11:37;99154.09;;;13.93;68.96
69955;BME280;57279;55.912;37.490;2022-09-30T09:14:24;99160.84;;;13.95;69.23
69955;BME280;57279;55.912;37.490;2022-09-30T09:19:46;99151.63;;;13.96;69.42
69955;BME280;57279;55.912;37.490;2022-09-30T09:22:13;99153.00;;;13.94;69.35
69955;BME280;57279;55.912;37.490;2022-09-30T09:24:49;99161.69;;;13.96;69.58
69955;BME280;57279;55.912;37.490;2022-09-30T09:27:36;99156.25;;;13.96;69.39
69955;BME280;57279;55.912;37.490;2022-09-30T09:30:11;99149.19;;;13.95;69.83
69955;BME280;57279;55.912;37.490;2022-09-30T09:32:38;99156.75;;;13.98;69.78
69955;BME280;57279;55.912;37.490;2022-09-30T09:46:26;99145.66;;;14.18;69.16
69955;BME280;57279;55.912;37.490;2022-09-30T09:52:00;99143.50;;;14.20;69.69
69955;BME280;57279;55.912;37.490;2022-09-30T09:54:31;99138.28;;;14.24;69.93
69955;BME280;57279;55.912;37.490;2022-09-30T09:57:06;99144.75;;;14.28;69.60
69955;BME280;57279;55.912;37.490;2022-09-30T09:59:54;99151.00;;;14.28;69.69
69955;BME280;57279;55.912;37.490;2022-09-30T10:02:22;99141.75;;;14.30;69.65
69955;BME280;57279;55.912;37.490;2022-09-30T10:04:49;99147.41;;;14.33;69.48
69955;BME280;57279;55.912;37.490;2022-09-30T10:07:25;99140.28;;;14.37;69.55
69955;BME280;57279;55.912;37.490;2022-09-30T10:12:30;99147.31;;;14.43;69.93
69955;BME280;57279;55.912;37.490;2022-09-30T10:15:02;99148.84;;;14.50;69.68
69955;BME280;57279;55.912;37.490;2022-09-30T10:17:31;99156.63;;;14.56;69.58
69955;BME280;57279;55.912;37.490;2022-09-30T10:20:22;99154.63;;;14.67;69.33
69955;BME280;57279;55.912;37.490;2022-09-30T10:22:48;99153.16;;;14.75;69.03
69955;BME280;57279;55.912;37.490;2022-09-30T10:38:13;99152.16;;;15.28;68.45
69955;BME280;57279;55.912;37.490;2022-09-30T10:40:49;99159.13;;;15.34;68.32
69955;BME280;57279;55.912;37.490;2022-09-30T10:43:40;99164.25;;;15.35;68.33
69955;BME280;57279;55.912;37.490;2022-09-30T10:46:07;99153.09;;;15.37;68.51
69955;BME280;57279;55.912;37.490;2022-09-30T10:48:35;99157.41;;;15.38;68.59
69955;BME280;57279;55.912;37.490;2022-09-30T10:51:02;99162.06;;;15.37;68.80
69955;BME280;57279;55.912;37.490;2022-09-30T10:53:33;99155.72;;;15.42;68.95
69955;BME280;57279;55.912;37.490;2022-09-30T10:56:00;99152.41;;;15.45;68.75
69955;BME280;57279;55.912;37.490;2022-09-30T10:58:44;99148.59;;;15.46;68.79
69955;BME280;57279;55.912;37.490;2022-09-30T11:01:22;99157.25;;;15.48;69.35
69955;BME280;57279;55.912;37.490;2022-09-30T11:06:32;99143.34;;;15.50;68.96
69955;BME280;57279;55.912;37.490;2022-09-30T11:09:39;99131.22;;;15.42;69.19
69955;BME280;57279;55.912;37.490;2022-09-30T11:13:00;99140.50;;;15.41;69.62
69955;BME280;57279;55.912;37.490;2022-09-30T11:15:14;99140.50;;;15.41;69.34
69955;BME280;57279;55.912;37.490;2022-09-30T11:17:52;99140.22;;;15.42;69.55
69955;BME280;57279;55.912;37.490;2022-09-30T11:20:24;99132.28;;;15.46;69.13
69955;BME280;57279;55.912;37.490;2022-09-30T11:31:35;99137.50;;;15.75;68.41
69955;BME280;57279;55.912;37.490;2022-09-30T11:45:24;99145.19;;;15.87;67.09
69955;BME280;57279;55.912;37.490;2022-09-30T11:54:10;99155.19;;;16.06;67.19
69955;BME280;57279;55.912;37.490;2022-09-30T11:59:33;99162.94;;;15.98;67.80
69955;BME280;57279;55.912;37.490;2022-09-30T12:02:03;99166.38;;;15.90;68.21
69955;BME280;57279;55.912;37.490;2022-09-30T12:04:37;99160.22;;;15.85;68.24
69955;BME280;57279;55.912;37.490;2022-09-30T12:07:09;99156.69;;;15.84;68.56
69955;BME280;57279;55.912;37.490;2022-09-30T12:09:54;99163.72;;;15.85;68.64
69955;BME280;57279;55.912;37.490;2022-09-30T12:12:22;99162.94;;;15.85;68.71
69955;BME280;57279;55.912;37.490;2022-09-30T12:15:03;99165.66;;;15.85;68.65
69955;BME280;57279;55.912;37.490;2022-09-30T12:17:37;99168.16;;;15.81;68.54
69955;BME280;57279;55.912;37.490;2022-09-30T12:22:56;99168.47;;;15.79;68.83
69955;BME280;57279;55.912;37.490;2022-09-30T12:25:30;99166.25;;;15.81;69.08
69955;BME280;57279;55.912;37.490;2022-09-30T12:36:44;99166.59;;;15.94;68.97
69955;BME280;57279;55.912;37.490;2022-09-30T12:42:27;99166.09;;;15.92;68.36
69955;BME280;57279;55.912;37.490;2022-09-30T12:50:17;99161.53;;;15.87;68.86
69955;BME280;57279;55.912;37.490;2022-09-30T12:52:44;99162.31;;;15.88;68.97
69955;BME280;57279;55.912;37.490;2022-09-30T12:55:36;99156.06;;;15.87;68.96
69955;BME280;57279;55.912;37.490;2022-09-30T12:58:03;99162.84;;;15.90;68.78
69955;BME280;57279;55.912;37.490;2022-09-30T13:00:32;99161.22;;;15.89;69.18
69955;BME280;57279;55.912;37.490;2022-09-30T13:03:05;99161.72;;;15.91;69.37
69955;BME280;57279;55.912;37.490;2022-09-30T13:10:30;99156.38;;;15.86;69.40
69955;BME280;57279;55.912;37.490;2022-09-30T13:13:21;99163.22;;;15.83;69.57
69955;BME280;57279;55.912;37.490;2022-09-30T13:15:52;99161.91;;;15.80;69.81
69955;BME280;57279;55.912;37.490;2022-09-30T13:23:43;99165.81;;;15.74;69.98
69955;BME280;57279;55.912;37.490;2022-09-30T13:28:49;99177.00;;;15.73;70.13
69955;BME280;57279;55.912;37.490;2022-09-30T13:31:23;99174.28;;;15.73;70.76
69955;BME280;57279;55.912;37.490;2022-09-30T13:36:38;99183.81;;;15.70;70.72
69955;BME280;57279;55.912;37.490;2022-09-30T13:41:43;99187.66;;;15.69;70.94
69955;BME280;57279;55.912;37.490;2022-09-30T13:44:19;99186.03;;;15.68;71.27
69955;BME280;57279;55.912;37.490;2022-09-30T13:46:55;99189.56;;;15.69;71.29
69955;BME280;57279;55.912;37.490;2022-09-30T13:49:37;99191.19;;;15.70;71.64
69955;BME280;57279;55.912;37.490;2022-09-30T13:52:10;99196.63;;;15.70;71.77
69955;BME280;57279;55.912;37.490;2022-09-30T13:54:43;99193.09;;;15.69;71.58
69955;BME280;57279;55.912;37.490;2022-09-30T13:57:18;99192.91;;;15.66;71.91
69955;BME280;57279;55.912;37.490;2022-09-30T14:00:10;99202.66;;;15.67;72.16
69955;BME280;57279;55.912;37.490;2022-09-30T14:05:40;99202.16;;;15.64;72.55
69955;BME280;57279;55.912;37.490;2022-09-30T14:08:33;99195.41;;;15.62;72.29
69955;BME280;57279;55.912;37.490;2022-09-30T14:11:34;99196.19;;;15.62;72.70
69955;BME280;57279;55.912;37.490;2022-09-30T14:21:53;99212.41;;;15.54;72.92
69955;BME280;57279;55.912;37.490;2022-09-30T14:24:34;99214.91;;;15.50;72.70
69955;BME280;57279;55.912;37.490;2022-09-30T14:30:03;99220.94;;;15.47;72.88
69955;BME280;57279;55.912;37.490;2022-09-30T14:32:32;99222.06;;;15.46;73.15
69955;BME280;57279;55.912;37.490;2022-09-30T14:34:59;99223.94;;;15.45;73.51
69955;BME280;57279;55.912;37.490;2022-09-30T14:37:31;99232.19;;;15.40;73.90
69955;BME280;57279;55.912;37.490;2022-09-30T14:39:58;99227.34;;;15.37;73.94
69955;BME280;57279;55.912;37.490;2022-09-30T14:42:29;99227.91;;;15.34;74.17
69955;BME280;57279;55.912;37.490;2022-09-30T14:44:57;99231.75;;;15.33;74.56
69955;BME280;57279;55.912;37.490;2022-09-30T14:47:31;99231.25;;;15.31;75.10
69955;BME280;57279;55.912;37.490;2022-09-30T14:49:58;99236.69;;;15.31;75.17
69955;BME280;57279;55.912;37.490;2022-09-30T14:55:33;99242.69;;;15.28;75.75
69955;BME280;57279;55.912;37.490;2022-09-30T14:58:21;99244.38;;;15.24;76.19
69955;BME280;57279;55.912;37.490;2022-09-30T15:01:13;99245.78;;;15.21;76.52
69955;BME280;57279;55.912;37.490;2022-09-30T15:03:44;99240.94;;;15.18;76.84
69955;BME280;57279;55.912;37.490;2022-09-30T15:06:21;99246.16;;;15.15;77.45
69955;BME280;57279;55.912;37.490;2022-09-30T15:08:48;99257.63;;;15.12;77.33
69955;BME280;57279;55.912;37.490;2022-09-30T15:11:23;99254.91;;;15.12;77.86
69955;BME280;57279;55.912;37.490;2022-09-30T15:13:57;99253.28;;;15.11;78.17
69955;BME280;57279;55.912;37.490;2022-09-30T15:16:28;99249.25;;;15.08;78.29
69955;BME280;57279;55.912;37.490;2022-09-30T15:18:55;99260.41;;;15.07;78.91
69955;BME280;57279;55.912;37.490;2022-09-30T15:21:22;99263.41;;;15.05;78.88
69955;BME280;57279;55.912;37.490;2022-09-30T15:23:54;99265.31;;;15.04;79.45
69955;BME280;57279;55.912;37.490;2022-09-30T15:26:23;99267.22;;;15.04;79.24
69955;BME280;57279;55.912;37.490;2022-09-30T15:28:49;99271.03;;;15.03;79.56
69955;BME280;57279;55.912;37.490;2022-09-30T15:31:23;99264.28;;;15.00;79.95
69955;BME280;57279;55.912;37.490;2022-09-30T15:34:00;99268.66;;;14.96;80.20
69955;BME280;57279;55.912;37.490;2022-09-30T15:36:26;99278.75;;;14.96;80.40
69955;BME280;57279;55.912;37.490;2022-09-30T15:38:52;99289.91;;;14.94;80.68
69955;BME280;57279;55.912;37.490;2022-09-30T15:41:17;99279.63;;;14.91;81.12
69955;BME280;57279;55.912;37.490;2022-09-30T15:43:45;99278.28;;;14.89;81.29
69955;BME280;57279;55.912;37.490;2022-09-30T15:46:30;99281.31;;;14.87;81.39
69955;BME280;57279;55.912;37.490;2022-09-30T15:49:01;99279.97;;;14.84;81.67
69955;BME280;57279;55.912;37.490;2022-09-30T15:51:34;99290.59;;;14.81;81.58
69955;BME280;57279;55.912;37.490;2022-09-30T15:56:38;99292.56;;;14.75;81.54
69955;BME280;57279;55.912;37.490;2022-09-30T15:59:07;99287.97;;;14.76;82.00
69955;BME280;57279;55.912;37.490;2022-09-30T16:09:35;99295.88;;;14.72;81.68
69955;BME280;57279;55.912;37.490;2022-09-30T16:17:29;99296.22;;;14.65;81.17
69955;BME280;57279;55.912;37.490;2022-09-30T16:20:19;99300.09;;;14.59;80.99
69955;BME280;57279;55.912;37.490;2022-09-30T16:25:21;99296.56;;;14.54;80.80
69955;BME280;57279;55.912;37.490;2022-09-30T16:27:54;99299.28;;;14.54;81.03
69955;BME280;57279;55.912;37.490;2022-09-30T16:30:20;99308.56;;;14.53;80.69
69955;BME280;57279;55.912;37.490;2022-09-30T16:32:49;99307.47;;;14.48;80.44
69955;BME280;57279;55.912;37.490;2022-09-30T16:35:24;99313.50;;;14.45;80.33
69955;BME280;57279;55.912;37.490;2022-09-30T16:37:57;99318.94;;;14.45;80.46
69955;BME280;57279;55.912;37.490;2022-09-30T16:40:25;99321.13;;;14.43;80.76
69955;BME280;57279;55.912;37.490;2022-09-30T16:42:51;99318.13;;;14.45;80.68
69955;BME280;57279;55.912;37.490;2022-09-30T16:45:19;99327.94;;;14.41;81.00